Time;durP1;ratioP1;P1;durP2;ratioP2;P2;SDS_P1;SDS_P2;PMS_P1;PMS_P2;Temp;Humidity;BMP_temperature;BMP_pressure;BME280_temperature;BME280_humidity;BME280_pressure;Samples;Min_cycle;Max_cycle;Signal;HPM_P1;HPM_P2
2023/04/12 00:00:16;;;;;;;1.08;0.85;;;;;;;;;;1043278;28;20021;-19
2023/04/12 00:00:49;;;;;;;2.70;1.05;;;;;;;;;;1043390;28;20384;-19
2023/04/12 00:01:20;;;;;;;2.47;1.10;;;;;;;;;;1043565;28;20029;-19
2023/04/12 00:01:50;;;;;;;3.60;1.25;;;;;;;;;;1043942;28;20025;-19
2023/04/12 00:02:21;;;;;;;1.10;1.02;;;;;;;;;;1043979;28;20556;-19
2023/04/12 00:02:53;;;;;;;2.58;0.95;;;;;;;;;;1043990;28;20024;-19
2023/04/12 00:03:24;;;;;;;1.35;1.17;;;;;;;;;;1044038;28;20029;-19
2023/04/12 00:03:54;;;;;;;1.73;1.23;;;;;;;;;;1043613;28;20029;-19
2023/04/12 00:04:27;;;;;;;1.55;1.45;;;;;;;;;;1043934;28;20397;-19
2023/04/12 00:05:01;;;;;;;0.70;0.60;;;;;;;;;;1042992;28;20026;-19
2023/04/12 00:05:33;;;;;;;0.45;0.40;;;;;;;;;;1043937;28;20119;-19
2023/04/12 00:06:06;;;;;;;4.38;1.30;;;;;;;;;;1044044;28;20067;-19
2023/04/12 00:06:36;;;;;;;1.05;0.77;;;;;;;;;;1043599;28;20024;-19
2023/04/12 00:07:08;;;;;;;1.38;0.85;;;;;;;;;;1044134;28;20025;-19
2023/04/12 00:07:39;;;;;;;1.58;1.42;;;;;;;;;;1043643;28;20036;-19
2023/04/12 00:08:10;;;;;;;1.00;0.93;;;;;;;;;;1044042;28;20469;-19
2023/04/12 00:08:41;;;;;;;3.03;1.05;;;;;;;;;;1043650;28;20033;-19
2023/04/12 00:09:12;;;;;;;1.02;0.82;;;;;;;;;;1044095;28;20029;-19
2023/04/12 00:09:43;;;;;;;1.00;0.80;;;;;;;;;;1043331;28;20025;-19
2023/04/12 00:10:13;;;;;;;0.90;0.85;;;;;;;;;;1043929;28;20031;-19
2023/04/12 00:10:44;;;;;;;1.90;1.48;;;;;;;;;;1043671;28;20481;-19
2023/04/12 00:11:15;;;;;;;1.23;0.98;;;;;;;;;;1044029;28;20020;-19
2023/04/12 00:11:45;;;;;;;1.60;0.73;;;;;;;;;;1043855;28;20350;-19
2023/04/12 00:12:19;;;;;;;1.17;1.05;;;;;;;;;;1043804;28;20119;-19
2023/04/12 00:12:50;;;;;;;1.08;0.95;;;;;;;;;;1043362;28;20021;-19
2023/04/12 00:13:20;;;;;;;10.23;3.00;;;;;;;;;;1044009;28;20028;-19
2023/04/12 00:13:50;;;;;;;0.52;0.52;;;;;;;;;;1043906;28;20146;-19
2023/04/12 00:14:21;;;;;;;1.88;1.25;;;;;;;;;;1043886;28;20075;-19
2023/04/12 00:14:52;;;;;;;0.65;0.63;;;;;;;;;;1043864;28;20052;-19
2023/04/12 00:15:22;;;;;;;3.28;1.35;;;;;;;;;;1043976;28;20021;-19
2023/04/12 00:15:53;;;;;;;4.70;2.03;;;;;;;;;;1043865;28;20036;-19
2023/04/12 00:16:23;;;;;;;2.65;1.25;;;;;;;;;;1043766;28;20028;-19
2023/04/12 00:16:54;;;;;;;2.15;1.50;;;;;;;;;;1043936;28;20448;-19
2023/04/12 00:17:24;;;;;;;2.40;1.35;;;;;;;;;;1043895;28;20055;-19
2023/04/12 00:17:55;;;;;;;3.22;2.08;;;;;;;;;;1043951;28;20052;-19
2023/04/12 00:18:26;;;;;;;3.60;1.88;;;;;;;;;;1042875;28;20116;-19
2023/04/12 00:18:56;;;;;;;2.83;1.48;;;;;;;;;;1042828;28;20396;-19
2023/04/12 00:19:29;;;;;;;1.60;1.50;;;;;;;;;;1044041;28;20032;-19
2023/04/12 00:20:00;;;;;;;1.90;1.70;;;;;;;;;;1043765;28;20028;-19
2023/04/12 00:20:31;;;;;;;11.52;3.38;;;;;;;;;;1043890;28;20040;-19
2023/04/12 00:21:02;;;;;;;0.80;0.77;;;;;;;;;;1043935;28;20057;-19
2023/04/12 00:21:32;;;;;;;2.15;1.73;;;;;;;;;;1043937;28;20551;-19
2023/04/12 00:22:03;;;;;;;5.03;2.75;;;;;;;;;;1043980;28;20025;-19
2023/04/12 00:22:33;;;;;;;2.38;2.03;;;;;;;;;;1043783;28;20469;-19
2023/04/12 00:23:04;;;;;;;2.17;1.60;;;;;;;;;;1043950;28;20028;-19
2023/04/12 00:23:36;;;;;;;1.73;1.10;;;;;;;;;;1043334;28;20027;-19
2023/04/12 00:24:07;;;;;;;4.05;2.03;;;;;;;;;;1043867;28;20489;-19
2023/04/12 00:24:39;;;;;;;2.92;1.45;;;;;;;;;;1043794;28;20025;-19
2023/04/12 00:25:09;;;;;;;2.25;1.90;;;;;;;;;;1043906;28;20029;-19
2023/04/12 00:25:40;;;;;;;1.27;1.17;;;;;;;;;;1043781;28;20021;-19
2023/04/12 00:26:10;;;;;;;7.20;1.25;;;;;;;;;;1043280;28;20552;-19
2023/04/12 00:26:41;;;;;;;1.58;1.10;;;;;;;;;;1043923;28;20028;-19
2023/04/12 00:27:11;;;;;;;2.10;1.40;;;;;;;;;;1043605;28;20024;-19
2023/04/12 00:27:42;;;;;;;1.35;1.20;;;;;;;;;;1043220;28;20017;-19
2023/04/12 00:28:13;;;;;;;3.13;1.40;;;;;;;;;;1043428;28;20055;-19
2023/04/12 00:28:43;;;;;;;2.05;1.20;;;;;;;;;;1043611;28;20033;-19
2023/04/12 00:29:15;;;;;;;3.05;1.35;;;;;;;;;;1044061;28;20473;-19
2023/04/12 00:29:45;;;;;;;4.03;1.98;;;;;;;;;;1043819;28;20029;-19
2023/04/12 00:30:16;;;;;;;7.78;2.08;;;;;;;;;;1043871;28;20021;-19
2023/04/12 00:30:46;;;;;;;2.25;1.10;;;;;;;;;;1043596;28;20374;-19
2023/04/12 00:31:17;;;;;;;5.05;1.55;;;;;;;;;;1043931;28;20495;-19
2023/04/12 00:31:47;;;;;;;0.52;0.52;;;;;;;;;;1043803;28;20024;-19
2023/04/12 00:32:18;;;;;;;0.82;0.82;;;;;;;;;;1043935;28;20017;-19
2023/04/12 00:32:49;;;;;;;1.58;0.93;;;;;;;;;;1043736;28;20020;-19
2023/04/12 00:33:19;;;;;;;3.53;2.25;;;;;;;;;;1043875;28;20021;-19
2023/04/12 00:33:50;;;;;;;1.77;0.77;;;;;;;;;;1043864;28;20115;-19
2023/04/12 00:34:20;;;;;;;2.83;1.63;;;;;;;;;;1043782;28;20077;-19
2023/04/12 00:34:51;;;;;;;1.25;1.10;;;;;;;;;;1043789;28;20082;-19
2023/04/12 00:35:21;;;;;;;2.05;0.98;;;;;;;;;;1043903;28;20052;-19
2023/04/12 00:35:52;;;;;;;4.03;2.65;;;;;;;;;;1043788;28;20512;-19
2023/04/12 00:36:22;;;;;;;1.15;0.85;;;;;;;;;;1043803;28;20021;-20
2023/04/12 00:36:54;;;;;;;0.63;0.63;;;;;;;;;;1043605;28;20024;-19
2023/04/12 00:37:24;;;;;;;17.02;1.83;;;;;;;;;;1042834;28;20538;-20
2023/04/12 00:37:55;;;;;;;1.73;1.63;;;;;;;;;;1043649;28;20032;-19
2023/04/12 00:38:25;;;;;;;2.10;1.77;;;;;;;;;;1043695;28;20021;-19
2023/04/12 00:38:56;;;;;;;0.43;0.43;;;;;;;;;;1043895;28;20614;-19
2023/04/12 00:39:27;;;;;;;1.85;1.30;;;;;;;;;;1043770;28;20016;-19
2023/04/12 00:39:57;;;;;;;1.05;0.77;;;;;;;;;;1043842;28;20473;-19
2023/04/12 00:40:28;;;;;;;3.30;1.23;;;;;;;;;;1043737;28;20032;-19
2023/04/12 00:40:59;;;;;;;0.88;0.88;;;;;;;;;;1043771;28;20056;-19
2023/04/12 00:41:30;;;;;;;3.13;1.63;;;;;;;;;;1043750;28;20029;-19
2023/04/12 00:42:04;;;;;;;3.38;1.60;;;;;;;;;;1043275;28;20017;-19
2023/04/12 00:42:35;;;;;;;2.55;1.38;;;;;;;;;;1043200;28;20024;-19
2023/04/12 00:43:06;;;;;;;5.60;2.20;;;;;;;;;;1043999;28;20110;-19
2023/04/12 00:43:36;;;;;;;2.38;0.93;;;;;;;;;;1043780;28;20021;-19
2023/04/12 00:44:07;;;;;;;0.85;0.85;;;;;;;;;;1043644;28;20036;-19
2023/04/12 00:44:37;;;;;;;1.25;1.15;;;;;;;;;;1043742;28;20059;-19
2023/04/12 00:45:08;;;;;;;2.88;2.63;;;;;;;;;;1043850;28;20031;-19
2023/04/12 00:45:38;;;;;;;1.58;1.40;;;;;;;;;;1043261;28;20028;-19
2023/04/12 00:46:11;;;;;;;4.68;2.15;;;;;;;;;;1043628;28;20029;-19
2023/04/12 00:46:41;;;;;;;2.63;1.92;;;;;;;;;;1042452;28;20013;-19
2023/04/12 00:47:12;;;;;;;2.85;1.50;;;;;;;;;;1042583;28;20096;-19
2023/04/12 00:47:42;;;;;;;1.65;1.25;;;;;;;;;;1043892;28;20479;-19
2023/04/12 00:48:14;;;;;;;8.32;2.25;;;;;;;;;;1043787;28;20024;-19
2023/04/12 00:48:47;;;;;;;4.13;1.95;;;;;;;;;;1043592;28;20044;-19
2023/04/12 00:49:17;;;;;;;1.65;1.27;;;;;;;;;;1043571;28;20071;-19
2023/04/12 00:49:48;;;;;;;5.50;1.30;;;;;;;;;;1043438;28;20079;-19
2023/04/12 00:50:20;;;;;;;7.28;1.52;;;;;;;;;;1043423;28;20024;-19
2023/04/12 00:50:54;;;;;;;2.53;2.05;;;;;;;;;;1042993;28;20028;-19
2023/04/12 00:51:24;;;;;;;2.42;1.30;;;;;;;;;;1043475;28;20063;-19
2023/04/12 00:52:07;;;;;;;2.63;1.08;;;;;;;;;;1043695;28;20079;-19
2023/04/12 00:52:38;;;;;;;1.77;1.65;;;;;;;;;;1042580;28;20021;-19
2023/04/12 00:53:12;;;;;;;2.05;1.55;;;;;;;;;;1043556;28;20032;-19
2023/04/12 00:53:42;;;;;;;1.15;1.00;;;;;;;;;;1042809;28;20100;-19
2023/04/12 00:54:16;;;;;;;6.35;2.75;;;;;;;;;;1043534;28;20025;-19
2023/04/12 00:54:47;;;;;;;1.23;1.13;;;;;;;;;;1043658;28;20024;-19
2023/04/12 00:55:18;;;;;;;2.78;1.67;;;;;;;;;;1043889;28;20020;-19
2023/04/12 00:55:49;;;;;;;3.05;2.45;;;;;;;;;;1043803;28;20025;-19
2023/04/12 00:56:22;;;;;;;3.15;2.13;;;;;;;;;;1042313;28;20444;-19
2023/04/12 00:56:53;;;;;;;2.17;1.58;;;;;;;;;;1043131;28;20021;-19
2023/04/12 00:57:23;;;;;;;4.70;2.17;;;;;;;;;;1043488;28;20024;-19
2023/04/12 00:57:54;;;;;;;5.20;2.17;;;;;;;;;;1043283;28;20500;-19
2023/04/12 00:58:24;;;;;;;1.77;1.30;;;;;;;;;;1043362;28;20032;-19
2023/04/12 00:58:55;;;;;;;1.65;1.55;;;;;;;;;;1043650;28;20112;-19
2023/04/12 00:59:26;;;;;;;1.90;1.73;;;;;;;;;;1042613;28;20032;-20
2023/04/12 00:59:57;;;;;;;2.38;1.80;;;;;;;;;;1043643;28;20033;-19
2023/04/12 01:00:27;;;;;;;3.13;1.42;;;;;;;;;;1043086;28;20062;-19
2023/04/12 01:00:59;;;;;;;2.97;2.05;;;;;;;;;;1043609;28;20025;-19
2023/04/12 01:01:30;;;;;;;3.85;1.63;;;;;;;;;;1043697;28;20151;-19
2023/04/12 01:02:01;;;;;;;2.17;0.95;;;;;;;;;;1043606;28;20392;-19
2023/04/12 01:02:33;;;;;;;3.17;1.85;;;;;;;;;;1043596;28;20492;-19
2023/04/12 01:03:04;;;;;;;4.95;1.27;;;;;;;;;;1042783;28;20056;-19
2023/04/12 01:03:41;;;;;;;30.52;1.65;;;;;;;;;;1043070;28;20025;-19
2023/04/12 01:04:12;;;;;;;4.15;2.05;;;;;;;;;;1043558;28;20032;-19
2023/04/12 01:04:43;;;;;;;1.38;1.27;;;;;;;;;;1043443;28;20585;-19
2023/04/12 01:05:20;;;;;;;4.32;1.85;;;;;;;;;;1043746;28;20029;-19
2023/04/12 01:05:54;;;;;;;2.72;1.50;;;;;;;;;;1043375;28;20070;-19
2023/04/12 01:06:43;;;;;;;5.57;2.38;;;;;;;;;;1043248;28;20032;-19
2023/04/12 01:07:24;;;;;;;2.55;1.83;;;;;;;;;;1043059;28;20021;-19
2023/04/12 01:08:00;;;;;;;3.17;1.45;;;;;;;;;;1043576;28;20029;-19
2023/04/12 01:08:39;;;;;;;22.33;1.85;;;;;;;;;;1042695;28;20021;-19
2023/04/12 01:09:21;;;;;;;1.88;0.82;;;;;;;;;;1043303;28;20069;-19
2023/04/12 01:09:56;;;;;;;2.15;1.33;;;;;;;;;;1042332;28;20539;-19
2023/04/12 01:10:45;;;;;;;7.03;1.77;;;;;;;;;;1043521;28;20035;-19
2023/04/12 01:11:27;;;;;;;0.68;0.50;;;;;;;;;;1043355;28;20385;-19
2023/04/12 01:12:06;;;;;;;3.60;2.17;;;;;;;;;;1042790;28;20381;-19
2023/04/12 01:12:45;;;;;;;3.63;1.98;;;;;;;;;;1042415;28;20094;-19
2023/04/12 01:13:16;;;;;;;3.97;1.85;;;;;;;;;;1043165;28;20043;-19
2023/04/12 01:13:52;;;;;;;4.03;2.10;;;;;;;;;;1042620;28;20032;-19
2023/04/12 01:14:35;;;;;;;2.58;1.85;;;;;;;;;;1044357;28;20123;-18
2023/04/12 01:15:08;;;;;;;6.85;2.47;;;;;;;;;;1043345;28;20013;-19
2023/04/12 01:15:43;;;;;;;1.48;1.27;;;;;;;;;;1043426;28;20037;-19
2023/04/12 01:16:18;;;;;;;4.30;1.85;;;;;;;;;;1042549;28;20036;-18
2023/04/12 01:16:51;;;;;;;1.10;1.10;;;;;;;;;;1042813;28;20091;-19
2023/04/12 01:17:23;;;;;;;5.22;3.35;;;;;;;;;;1043348;28;20025;-19
2023/04/12 01:18:04;;;;;;;1.00;0.95;;;;;;;;;;1042765;28;20033;-19
2023/04/12 01:18:44;;;;;;;3.22;1.70;;;;;;;;;;1043266;28;20025;-18
2023/04/12 01:19:27;;;;;;;2.95;1.55;;;;;;;;;;1038808;28;20061;-19
2023/04/12 01:20:12;;;;;;;6.25;1.55;;;;;;;;;;1038857;28;20033;-19
2023/04/12 01:20:49;;;;;;;1.58;1.40;;;;;;;;;;1038442;28;20029;-19
2023/04/12 01:21:30;;;;;;;1.63;1.52;;;;;;;;;;1043309;28;20485;-19
2023/04/12 01:22:08;;;;;;;1.58;1.48;;;;;;;;;;1043532;28;20053;-19
2023/04/12 01:22:42;;;;;;;3.20;1.92;;;;;;;;;;1042871;28;20031;-19
2023/04/12 01:23:25;;;;;;;2.85;1.40;;;;;;;;;;1041871;28;20017;-19
2023/04/12 01:24:14;;;;;;;1.48;1.23;;;;;;;;;;1042887;28;20021;-19
2023/04/12 01:25:08;;;;;;;6.10;1.75;;;;;;;;;;1042950;28;20029;-19
2023/04/12 01:25:52;;;;;;;2.55;1.40;;;;;;;;;;1043487;28;20021;-19
2023/04/12 01:26:23;;;;;;;1.48;1.38;;;;;;;;;;1036139;28;20049;-19
2023/04/12 01:26:56;;;;;;;4.65;2.60;;;;;;;;;;1037651;28;20021;-19
2023/04/12 01:27:47;;;;;;;1.10;1.00;;;;;;;;;;1036933;28;20208;-19
2023/04/12 01:28:21;;;;;;;0.90;0.90;;;;;;;;;;1041015;28;20614;-19
2023/04/12 01:28:53;;;;;;;2.58;1.63;;;;;;;;;;1042476;28;20037;-19
2023/04/12 01:29:26;;;;;;;5.78;2.58;;;;;;;;;;1041539;28;20036;-19
2023/04/12 01:29:57;;;;;;;2.60;1.98;;;;;;;;;;1041714;28;20108;-19
2023/04/12 01:30:28;;;;;;;2.72;1.70;;;;;;;;;;1042052;28;20333;-19
2023/04/12 01:31:01;;;;;;;2.60;2.03;;;;;;;;;;1041506;28;20044;-19
2023/04/12 01:31:34;;;;;;;5.65;1.92;;;;;;;;;;1034860;28;20428;-19
2023/04/12 01:32:05;;;;;;;2.85;1.83;;;;;;;;;;1033952;28;20616;-19
2023/04/12 01:32:37;;;;;;;4.35;1.92;;;;;;;;;;1032682;28;20111;-19
2023/04/12 01:33:11;;;;;;;1.92;1.80;;;;;;;;;;1035419;28;20029;-20
2023/04/12 01:33:42;;;;;;;1.90;1.50;;;;;;;;;;1040963;28;20116;-20
2023/04/12 01:34:13;;;;;;;3.78;2.35;;;;;;;;;;1035691;28;20021;-20
2023/04/12 01:34:44;;;;;;;2.33;2.13;;;;;;;;;;1035744;28;20123;-20
2023/04/12 01:35:16;;;;;;;2.08;1.42;;;;;;;;;;1037485;28;20463;-19
2023/04/12 01:35:47;;;;;;;2.92;1.60;;;;;;;;;;1038459;28;20029;-20
2023/04/12 01:36:20;;;;;;;1.77;1.58;;;;;;;;;;1040359;28;20056;-19
2023/04/12 01:36:53;;;;;;;2.55;1.27;;;;;;;;;;1040644;28;20074;-19
2023/04/12 01:37:24;;;;;;;1.50;1.08;;;;;;;;;;1034461;28;20037;-19
2023/04/12 01:37:56;;;;;;;5.88;2.33;;;;;;;;;;1035246;28;20262;-17
2023/04/12 01:38:27;;;;;;;2.30;1.17;;;;;;;;;;1032549;28;20027;-18
2023/04/12 01:38:59;;;;;;;1.10;1.00;;;;;;;;;;1031993;28;20049;-18
2023/04/12 01:39:32;;;;;;;5.07;1.70;;;;;;;;;;1036375;28;20037;-18
2023/04/12 01:40:07;;;;;;;1.75;1.58;;;;;;;;;;1036634;28;20402;-18
2023/04/12 01:40:41;;;;;;;1.35;0.85;;;;;;;;;;1041280;28;20021;-18
2023/04/12 01:41:13;;;;;;;4.63;1.05;;;;;;;;;;1041306;28;20087;-17
2023/04/12 01:41:47;;;;;;;3.25;0.90;;;;;;;;;;1037148;28;20025;-18
2023/04/12 01:42:21;;;;;;;27.98;2.30;;;;;;;;;;1036334;28;20037;-18
2023/04/12 01:43:02;;;;;;;13.88;2.13;;;;;;;;;;1037050;28;20079;-18
2023/04/12 01:43:38;;;;;;;6.15;2.88;;;;;;;;;;1035786;28;20554;-18
2023/04/12 01:44:11;;;;;;;2.75;1.35;;;;;;;;;;1036869;28;20029;-18
2023/04/12 01:44:42;;;;;;;6.18;1.63;;;;;;;;;;1034587;28;20132;-18
2023/04/12 01:45:12;;;;;;;1.92;1.67;;;;;;;;;;1033695;28;20520;-18
2023/04/12 01:45:43;;;;;;;10.85;4.30;;;;;;;;;;1032369;28;20033;-18
2023/04/12 01:46:15;;;;;;;6.22;4.25;;;;;;;;;;1036866;28;20021;-18
2023/04/12 01:46:46;;;;;;;8.07;2.75;;;;;;;;;;1039928;28;20033;-18
2023/04/12 01:47:17;;;;;;;4.20;2.72;;;;;;;;;;1040727;28;20481;-18
2023/04/12 01:47:47;;;;;;;4.60;2.60;;;;;;;;;;1041147;28;20036;-18
2023/04/12 01:48:18;;;;;;;3.63;2.15;;;;;;;;;;1041593;28;20520;-18
2023/04/12 01:48:50;;;;;;;3.53;1.77;;;;;;;;;;1038855;28;20029;-18
2023/04/12 01:49:23;;;;;;;12.85;5.95;;;;;;;;;;1036736;28;20183;-18
2023/04/12 01:50:06;;;;;;;4.63;3.35;;;;;;;;;;1035299;28;20125;-18
2023/04/12 01:50:55;;;;;;;10.55;3.92;;;;;;;;;;1037545;28;20038;-19
2023/04/12 01:51:49;;;;;;;3.87;1.87;;;;;;;;;;1036573;28;20096;-19
2023/04/12 01:52:23;;;;;;;5.70;2.55;;;;;;;;;;1037089;28;20311;-18
2023/04/12 01:53:02;;;;;;;4.15;2.33;;;;;;;;;;1033621;28;20488;-18
2023/04/12 01:53:53;;;;;;;1.63;1.52;;;;;;;;;;1026228;28;20034;-18
2023/04/12 01:54:27;;;;;;;2.00;1.83;;;;;;;;;;1028245;28;20026;-21
2023/04/12 01:55:00;;;;;;;9.85;1.85;;;;;;;;;;1032266;28;20433;-19
2023/04/12 01:55:31;;;;;;;10.23;1.75;;;;;;;;;;1037172;28;21038;-20
2023/04/12 01:56:05;;;;;;;3.03;1.83;;;;;;;;;;1036692;28;20446;-20
2023/04/12 01:56:38;;;;;;;1.75;1.17;;;;;;;;;;1037683;28;20482;-20
2023/04/12 01:57:08;;;;;;;1.92;1.70;;;;;;;;;;1035546;28;20114;-20
2023/04/12 01:57:42;;;;;;;2.65;1.75;;;;;;;;;;1041180;28;20028;-20
2023/04/12 01:58:19;;;;;;;4.13;1.55;;;;;;;;;;1040104;28;20024;-20
2023/04/12 01:58:52;;;;;;;1.55;1.02;;;;;;;;;;1040574;28;20375;-18
2023/04/12 01:59:27;;;;;;;5.55;2.10;;;;;;;;;;1042077;28;20208;-18
2023/04/12 01:59:59;;;;;;;5.38;2.05;;;;;;;;;;1041492;28;20124;-19
2023/04/12 02:00:30;;;;;;;3.00;2.70;;;;;;;;;;1041362;28;20033;-19
2023/04/12 02:01:01;;;;;;;2.08;1.13;;;;;;;;;;1039701;28;20436;-19
2023/04/12 02:01:32;;;;;;;7.32;3.20;;;;;;;;;;1042786;28;20040;-19
2023/04/12 02:02:03;;;;;;;13.52;1.10;;;;;;;;;;1040748;28;20021;-19
2023/04/12 02:02:35;;;;;;;1.40;0.77;;;;;;;;;;1041632;28;20086;-19
2023/04/12 02:03:06;;;;;;;2.30;1.30;;;;;;;;;;1040969;28;20029;-19
2023/04/12 02:03:41;;;;;;;3.53;1.25;;;;;;;;;;1039298;28;20063;-19
2023/04/12 02:04:12;;;;;;;1.90;1.27;;;;;;;;;;1032678;28;20049;-19
2023/04/12 02:04:44;;;;;;;1.85;1.45;;;;;;;;;;1033133;28;20030;-19
2023/04/12 02:05:15;;;;;;;2.28;1.02;;;;;;;;;;1031323;28;20037;-19
2023/04/12 02:05:46;;;;;;;10.25;2.13;;;;;;;;;;1029910;28;20017;-19
2023/04/12 02:06:20;;;;;;;1.80;1.65;;;;;;;;;;1030789;28;20037;-19
2023/04/12 02:06:50;;;;;;;0.77;0.73;;;;;;;;;;1030754;28;20132;-19
2023/04/12 02:07:21;;;;;;;4.15;1.92;;;;;;;;;;1032566;28;20120;-19
2023/04/12 02:07:54;;;;;;;4.70;2.30;;;;;;;;;;1034131;28;20128;-19
2023/04/12 02:08:25;;;;;;;2.33;1.23;;;;;;;;;;1036153;28;20686;-19
2023/04/12 02:09:01;;;;;;;2.63;1.60;;;;;;;;;;1033714;28;20032;-19
2023/04/12 02:09:38;;;;;;;1.65;1.08;;;;;;;;;;1033629;28;20025;-19
2023/04/12 02:10:14;;;;;;;1.70;1.42;;;;;;;;;;1035751;28;20021;-19
2023/04/12 02:10:45;;;;;;;2.55;1.45;;;;;;;;;;1037418;28;20030;-19
2023/04/12 02:11:15;;;;;;;2.58;1.60;;;;;;;;;;1037566;28;20035;-19
2023/04/12 02:11:48;;;;;;;2.80;1.58;;;;;;;;;;1036552;28;20132;-19
2023/04/12 02:12:18;;;;;;;5.00;1.92;;;;;;;;;;1033717;28;20026;-19
2023/04/12 02:12:50;;;;;;;2.13;1.50;;;;;;;;;;1037341;28;20457;-19
2023/04/12 02:13:21;;;;;;;5.65;2.03;;;;;;;;;;1034696;28;20525;-19
2023/04/12 02:13:52;;;;;;;7.05;2.70;;;;;;;;;;1037736;28;20040;-19
2023/04/12 02:14:25;;;;;;;4.43;1.27;;;;;;;;;;1040856;28;20021;-19
2023/04/12 02:14:57;;;;;;;6.38;3.17;;;;;;;;;;1040020;28;20072;-19
2023/04/12 02:15:28;;;;;;;1.48;1.05;;;;;;;;;;1040105;28;20025;-19
2023/04/12 02:16:01;;;;;;;3.22;2.45;;;;;;;;;;1039023;28;20055;-19
2023/04/12 02:16:34;;;;;;;7.90;1.92;;;;;;;;;;1036996;28;20099;-19
2023/04/12 02:17:07;;;;;;;7.38;4.47;;;;;;;;;;1036897;28;20033;-19
2023/04/12 02:17:39;;;;;;;3.13;1.92;;;;;;;;;;1035046;28;20474;-19
2023/04/12 02:18:10;;;;;;;13.15;2.28;;;;;;;;;;1034162;28;20033;-19
2023/04/12 02:18:42;;;;;;;5.68;2.15;;;;;;;;;;1038711;28;20033;-19
2023/04/12 02:19:13;;;;;;;3.15;1.90;;;;;;;;;;1036034;28;20051;-19
2023/04/12 02:19:46;;;;;;;0.65;0.65;;;;;;;;;;1037875;28;20462;-19
2023/04/12 02:20:17;;;;;;;3.15;1.15;;;;;;;;;;1032382;28;20018;-19
2023/04/12 02:20:48;;;;;;;6.22;1.52;;;;;;;;;;1033991;28;20088;-19
2023/04/12 02:21:20;;;;;;;3.55;1.77;;;;;;;;;;1037020;28;20036;-18
2023/04/12 02:21:52;;;;;;;2.70;1.45;;;;;;;;;;1038181;28;20032;-18
2023/04/12 02:22:23;;;;;;;17.60;3.05;;;;;;;;;;1033130;28;20025;-18
2023/04/12 02:22:54;;;;;;;1.52;0.77;;;;;;;;;;1030146;28;20134;-18
2023/04/12 02:23:24;;;;;;;6.60;2.53;;;;;;;;;;1029321;28;20044;-19
2023/04/12 02:23:55;;;;;;;2.80;1.52;;;;;;;;;;1026419;28;20034;-19
2023/04/12 02:24:26;;;;;;;1.40;1.08;;;;;;;;;;1026794;28;20480;-19
2023/04/12 02:24:58;;;;;;;1.13;1.08;;;;;;;;;;1029648;28;20030;-19
2023/04/12 02:25:29;;;;;;;3.35;1.92;;;;;;;;;;1032249;28;20034;-19
2023/04/12 02:26:00;;;;;;;2.80;1.60;;;;;;;;;;1032347;28;20030;-19
2023/04/12 02:26:31;;;;;;;3.15;1.58;;;;;;;;;;1041437;28;20037;-19
2023/04/12 02:27:06;;;;;;;2.55;1.35;;;;;;;;;;1038662;28;20025;-19
2023/04/12 02:27:39;;;;;;;1.10;1.00;;;;;;;;;;1037936;28;20026;-19
2023/04/12 02:28:11;;;;;;;4.72;2.35;;;;;;;;;;1037213;28;20100;-19
2023/04/12 02:28:43;;;;;;;0.70;0.70;;;;;;;;;;1038341;28;20047;-19
2023/04/12 02:29:14;;;;;;;3.13;1.35;;;;;;;;;;1034591;28;20038;-19
2023/04/12 02:29:45;;;;;;;3.42;1.80;;;;;;;;;;1038487;28;20561;-20
2023/04/12 02:30:19;;;;;;;3.83;1.63;;;;;;;;;;1037774;28;20030;-19
2023/04/12 02:30:52;;;;;;;7.00;2.55;;;;;;;;;;1038832;28;20033;-20
2023/04/12 02:31:23;;;;;;;7.97;1.15;;;;;;;;;;1033625;28;20465;-19
2023/04/12 02:31:54;;;;;;;8.43;1.70;;;;;;;;;;1032011;28;20036;-19
2023/04/12 02:32:24;;;;;;;0.95;0.38;;;;;;;;;;1033231;28;20029;-19
2023/04/12 02:32:56;;;;;;;1.35;1.10;;;;;;;;;;1034326;28;20022;-19
2023/04/12 02:33:28;;;;;;;2.53;2.08;;;;;;;;;;1038009;28;20025;-19
2023/04/12 02:33:59;;;;;;;1.92;1.50;;;;;;;;;;1040265;28;20516;-19
2023/04/12 02:34:33;;;;;;;0.88;0.73;;;;;;;;;;1040711;28;20126;-19
2023/04/12 02:35:04;;;;;;;1.70;0.98;;;;;;;;;;1041374;28;20488;-20
2023/04/12 02:35:36;;;;;;;1.38;0.77;;;;;;;;;;1042597;28;20029;-19
2023/04/12 02:36:09;;;;;;;3.45;1.42;;;;;;;;;;1033041;28;20030;-20
2023/04/12 02:36:39;;;;;;;0.57;0.35;;;;;;;;;;1034192;28;20417;-19
2023/04/12 02:37:12;;;;;;;16.63;1.33;;;;;;;;;;1032104;28;20518;-17
2023/04/12 02:37:50;;;;;;;0.38;0.35;;;;;;;;;;1032680;28;20125;-19
2023/04/12 02:38:27;;;;;;;0.35;0.30;;;;;;;;;;1042997;28;20024;-18
2023/04/12 02:38:59;;;;;;;0.75;0.20;;;;;;;;;;1042105;28;20080;-19
2023/04/12 02:39:33;;;;;;;0.60;0.60;;;;;;;;;;1044945;28;20467;-18
2023/04/12 02:40:05;;;;;;;0.52;0.52;;;;;;;;;;1042831;28;20195;-18
2023/04/12 02:40:40;;;;;;;0.20;0.20;;;;;;;;;;1041282;28;20065;-18
2023/04/12 02:41:16;;;;;;;0.40;0.40;;;;;;;;;;1037456;28;20040;-19
2023/04/12 02:41:46;;;;;;;0.43;0.35;;;;;;;;;;1032906;28;20517;-19
2023/04/12 02:42:18;;;;;;;0.68;0.55;;;;;;;;;;1032534;28;20037;-18
2023/04/12 02:42:51;;;;;;;0.38;0.38;;;;;;;;;;1034033;28;20148;-19
2023/04/12 02:43:24;;;;;;;0.20;0.20;;;;;;;;;;1033588;28;20806;-19
2023/04/12 02:43:56;;;;;;;1.48;1.08;;;;;;;;;;1040827;28;20123;-19
2023/04/12 02:44:29;;;;;;;1.45;1.00;;;;;;;;;;1040866;28;20416;-19
2023/04/12 02:45:00;;;;;;;0.40;0.38;;;;;;;;;;1036156;28;20416;-19
2023/04/12 02:45:32;;;;;;;0.40;0.40;;;;;;;;;;1039389;28;20715;-19
2023/04/12 02:46:03;;;;;;;2.08;0.75;;;;;;;;;;1030980;28;20044;-19
2023/04/12 02:46:34;;;;;;;0.55;0.55;;;;;;;;;;1037872;28;20113;-19
2023/04/12 02:47:04;;;;;;;0.38;0.38;;;;;;;;;;1041226;28;20039;-19
2023/04/12 02:47:36;;;;;;;0.90;0.70;;;;;;;;;;1041889;28;20036;-19
2023/04/12 02:48:07;;;;;;;0.63;0.45;;;;;;;;;;1035627;28;20128;-19
2023/04/12 02:48:38;;;;;;;0.43;0.30;;;;;;;;;;1034749;28;20513;-19
2023/04/12 02:49:09;;;;;;;5.45;0.65;;;;;;;;;;1035927;28;20030;-19
2023/04/12 02:49:40;;;;;;;0.30;0.30;;;;;;;;;;1038069;28;20109;-19
2023/04/12 02:50:11;;;;;;;0.50;0.50;;;;;;;;;;1037172;28;20040;-20
2023/04/12 02:50:43;;;;;;;2.72;0.75;;;;;;;;;;1042284;28;20057;-19
2023/04/12 02:51:15;;;;;;;0.40;0.40;;;;;;;;;;1039066;28;20549;-20
2023/04/12 02:51:47;;;;;;;1.58;0.95;;;;;;;;;;1039019;28;20429;-19
2023/04/12 02:52:20;;;;;;;1.75;0.30;;;;;;;;;;1033608;28;20026;-19
2023/04/12 02:52:53;;;;;;;2.15;0.73;;;;;;;;;;1029722;28;20120;-19
2023/04/12 02:53:26;;;;;;;1.55;0.85;;;;;;;;;;1034567;28;20048;-19
2023/04/12 02:53:58;;;;;;;0.80;0.80;;;;;;;;;;1023655;28;20034;-19
2023/04/12 02:54:28;;;;;;;0.52;0.52;;;;;;;;;;1029394;28;20026;-19
2023/04/12 02:55:04;;;;;;;0.45;0.45;;;;;;;;;;1034520;28;20061;-19
2023/04/12 02:55:40;;;;;;;2.08;1.10;;;;;;;;;;1034891;28;20389;-19
2023/04/12 02:56:36;;;;;;;2.28;1.05;;;;;;;;;;1030772;28;20464;-20
2023/04/12 02:57:22;;;;;;;0.60;0.50;;;;;;;;;;1035705;28;20026;-20
2023/04/12 02:58:16;;;;;;;8.57;2.42;;;;;;;;;;1036663;28;20033;-20
2023/04/12 02:59:12;;;;;;;0.60;0.60;;;;;;;;;;1035037;28;20110;-20
2023/04/12 03:00:59;;;;;;;2.75;1.10;;;;;;;;;;1026709;28;20043;-18
2023/04/12 03:04:32;;;;;;;0.45;0.45;;;;;;;;;;1039307;28;20025;-20
2023/04/12 03:05:54;;;;;;;0.60;0.60;;;;;;;;;;1037760;28;20029;-19
2023/04/12 03:07:39;;;;;;;2.55;0.90;;;;;;;;;;1038904;28;20164;-20
2023/04/12 03:09:59;;;;;;;1.75;1.05;;;;;;;;;;1030688;28;20521;-19
2023/04/12 03:11:07;;;;;;;4.03;1.75;;;;;;;;;;1030672;28;20047;-20
2023/04/12 03:11:40;;;;;;;2.05;1.65;;;;;;;;;;1027516;28;20029;-20
2023/04/12 03:12:13;;;;;;;3.38;1.17;;;;;;;;;;1027559;28;20054;-20
2023/04/12 03:12:46;;;;;;;1.20;0.63;;;;;;;;;;1030738;28;20034;-20
2023/04/12 03:13:21;;;;;;;3.15;1.35;;;;;;;;;;1028944;28;20532;-20
2023/04/12 03:13:54;;;;;;;3.58;1.90;;;;;;;;;;1034554;28;20034;-19
2023/04/12 03:14:27;;;;;;;0.35;0.35;;;;;;;;;;1032402;28;20033;-19
2023/04/12 03:14:59;;;;;;;2.28;1.50;;;;;;;;;;1025428;28;20026;-21
2023/04/12 03:15:32;;;;;;;0.30;0.30;;;;;;;;;;1023867;28;20138;-19
2023/04/12 03:16:20;;;;;;;0.90;0.45;;;;;;;;;;1023957;28;20027;-20
2023/04/12 03:16:52;;;;;;;3.08;1.15;;;;;;;;;;1031194;28;20029;-21
2023/04/12 03:17:25;;;;;;;1.35;1.00;;;;;;;;;;1032401;28;20018;-18
2023/04/12 03:17:59;;;;;;;9.63;1.58;;;;;;;;;;1027005;28;20034;-19
2023/04/12 03:18:31;;;;;;;16.80;2.85;;;;;;;;;;1025835;28;20480;-18
2023/04/12 03:19:04;;;;;;;1.23;0.98;;;;;;;;;;1028971;28;20030;-21
2023/04/12 03:19:37;;;;;;;3.05;1.15;;;;;;;;;;1031798;28;20030;-19
2023/04/12 03:20:08;;;;;;;7.90;1.25;;;;;;;;;;1026519;28;20022;-19
2023/04/12 03:20:40;;;;;;;13.38;1.40;;;;;;;;;;1028058;28;20034;-20
2023/04/12 03:21:12;;;;;;;1.25;0.60;;;;;;;;;;1032120;28;23119;-20
2023/04/12 03:21:45;;;;;;;1.15;0.60;;;;;;;;;;1032718;28;20028;-19
2023/04/12 03:22:22;;;;;;;0.32;0.32;;;;;;;;;;1036587;28;20025;-20
2023/04/12 03:22:59;;;;;;;1.52;0.98;;;;;;;;;;1032106;28;20846;-20
2023/04/12 03:23:30;;;;;;;2.38;1.13;;;;;;;;;;1034684;28;20526;-20
2023/04/12 03:24:05;;;;;;;1.55;1.42;;;;;;;;;;1035997;28;20393;-20
2023/04/12 03:24:41;;;;;;;5.57;1.92;;;;;;;;;;1033494;28;20041;-20
2023/04/12 03:25:17;;;;;;;1.27;1.17;;;;;;;;;;1030349;28;20460;-20
2023/04/12 03:25:49;;;;;;;0.38;0.38;;;;;;;;;;1026382;28;20410;-20
2023/04/12 03:26:25;;;;;;;0.73;0.70;;;;;;;;;;1028765;28;20085;-19
2023/04/12 03:26:57;;;;;;;1.10;0.95;;;;;;;;;;1026957;28;20484;-19
2023/04/12 03:27:33;;;;;;;1.27;1.15;;;;;;;;;;1030225;28;20564;-19